Time;durP1;ratioP1;P1;durP2;ratioP2;P2;SDS_P1;SDS_P2;PMS_P1;PMS_P2;Temp;Humidity;BMP_temperature;BMP_pressure;BME280_temperature;BME280_humidity;BME280_pressure;Samples;Min_cycle;Max_cycle;Signal;HPM_P1;HPM_P2
2021/08/09 00:00:46;;;;;;;9.73;1.87;;;14.90;31.30;;;;;;4981371;28;20176;-69
2021/08/09 00:03:13;;;;;;;2.80;1.90;;;14.90;30.50;;;;;;4982052;28;20504;-69
2021/08/09 00:05:38;;;;;;;1.97;1.30;;;14.90;29.40;;;;;;4981845;28;20264;-69
2021/08/09 00:08:05;;;;;;;2.63;1.80;;;14.80;30.00;;;;;;4983982;28;20436;-69
2021/08/09 00:10:31;;;;;;;3.60;1.90;;;14.80;29.20;;;;;;4981430;28;20184;-69
2021/08/09 00:12:57;;;;;;;3.30;1.43;;;14.70;30.00;;;;;;4981298;28;20539;-69
2021/08/09 00:15:23;;;;;;;1.67;1.30;;;14.70;30.00;;;;;;4982333;28;20184;-69
2021/08/09 00:17:49;;;;;;;1.50;1.30;;;14.70;29.40;;;;;;4981512;28;20419;-69
2021/08/09 00:20:16;;;;;;;4.60;1.77;;;14.60;29.10;;;;;;4980087;28;20445;-69
2021/08/09 00:22:42;;;;;;;8.37;2.20;;;14.60;29.90;;;;;;4984020;28;20192;-69
2021/08/09 00:25:08;;;;;;;1.70;1.30;;;14.60;28.80;;;;;;4986627;28;20449;-69
2021/08/09 00:27:34;;;;;;;1.50;1.30;;;14.40;29.30;;;;;;4987739;28;20183;-69
2021/08/09 00:29:59;;;;;;;3.10;1.70;;;14.40;28.20;;;;;;4987454;28;20428;-69
2021/08/09 00:32:25;;;;;;;3.40;1.40;;;14.30;28.40;;;;;;4988701;28;20468;-69
2021/08/09 00:34:51;;;;;;;3.30;1.83;;;14.30;29.70;;;;;;4988168;28;20695;-69
2021/08/09 00:37:16;;;;;;;1.90;1.40;;;14.40;29.80;;;;;;4988166;28;20427;-69
2021/08/09 00:39:42;;;;;;;2.57;1.37;;;14.40;28.40;;;;;;4987664;28;20178;-69
2021/08/09 00:42:08;;;;;;;1.20;0.93;;;14.40;29.00;;;;;;4987153;28;20181;-69
2021/08/09 00:44:34;;;;;;;5.17;1.60;;;14.40;29.40;;;;;;4986174;28;20212;-69
2021/08/09 00:47:00;;;;;;;1.43;1.10;;;14.50;28.80;;;;;;4986071;28;20186;-69
2021/08/09 00:49:25;;;;;;;1.50;1.10;;;14.50;29.30;;;;;;4988426;28;20424;-69
2021/08/09 00:51:51;;;;;;;6.63;2.00;;;14.50;29.10;;;;;;4988766;28;20538;-69
2021/08/09 00:54:19;;;;;;;2.10;1.47;;;14.40;29.50;;;;;;4984623;28;20222;-69
2021/08/09 00:56:45;;;;;;;2.40;1.40;;;14.40;28.30;;;;;;4983003;28;20192;-69
2021/08/09 00:59:11;;;;;;;1.60;1.30;;;14.30;28.30;;;;;;4982514;28;20500;-69
2021/08/09 01:01:36;;;;;;;1.80;1.33;;;14.30;28.70;;;;;;4982547;28;20439;-69
2021/08/09 01:04:03;;;;;;;2.20;1.50;;;14.30;29.70;;;;;;4983374;28;20436;-69
2021/08/09 01:06:29;;;;;;;1.90;0.97;;;14.30;30.00;;;;;;4980995;28;20241;-69
2021/08/09 01:09:17;;;;;;;2.17;1.47;;;14.30;30.40;;;;;;4980724;28;20413;-69
2021/08/09 01:11:53;;;;;;;2.60;1.40;;;14.30;29.70;;;;;;4981084;28;20432;-69
2021/08/09 01:14:38;;;;;;;5.43;1.67;;;14.30;29.10;;;;;;4980919;28;20496;-69
2021/08/09 01:17:06;;;;;;;1.80;1.27;;;14.40;30.40;;;;;;4978986;28;20955;-69
2021/08/09 01:19:38;;;;;;;1.77;1.63;;;14.40;29.30;;;;;;4977609;28;20187;-69
2021/08/09 01:22:11;;;;;;;2.50;1.17;;;14.40;29.50;;;;;;4977518;28;20420;-69
2021/08/09 01:24:58;;;;;;;2.20;1.20;;;14.40;29.70;;;;;;4977928;28;20461;-70
2021/08/09 01:27:32;;;;;;;4.50;1.30;;;14.40;29.50;;;;;;4978621;28;20932;-70
2021/08/09 01:30:02;;;;;;;3.00;2.30;;;14.40;29.70;;;;;;4977523;28;20937;-69
2021/08/09 01:32:31;;;;;;;5.67;1.37;;;14.40;30.30;;;;;;4978646;28;20475;-69
2021/08/09 01:34:57;;;;;;;1.47;1.17;;;14.40;29.90;;;;;;4976803;28;20459;-69
2021/08/09 01:37:25;;;;;;;2.37;1.60;;;14.30;29.30;;;;;;4975860;28;20503;-69
2021/08/09 01:39:50;;;;;;;1.50;1.17;;;14.30;30.00;;;;;;4977032;28;20421;-69
2021/08/09 01:42:18;;;;;;;2.30;2.10;;;14.30;29.50;;;;;;4976833;28;20939;-69
2021/08/09 01:44:43;;;;;;;3.77;1.83;;;14.30;29.30;;;;;;4976624;28;20207;-70
2021/08/09 01:47:09;;;;;;;1.33;1.10;;;14.20;30.30;;;;;;4976478;28;20432;-70
2021/08/09 01:49:36;;;;;;;5.73;1.90;;;14.20;29.30;;;;;;4976079;28;20669;-70
2021/08/09 01:52:02;;;;;;;1.63;1.43;;;14.20;28.50;;;;;;4977418;28;20834;-70
2021/08/09 01:54:28;;;;;;;3.37;1.33;;;14.20;29.00;;;;;;4979456;28;20433;-70
2021/08/09 01:56:54;;;;;;;3.93;1.93;;;14.10;28.50;;;;;;4980109;28;20432;-70
2021/08/09 01:59:21;;;;;;;2.00;1.77;;;14.00;29.50;;;;;;4975087;28;20417;-69
2021/08/09 02:01:47;;;;;;;1.70;1.27;;;14.10;29.60;;;;;;4975405;28;20298;-69
2021/08/09 02:04:13;;;;;;;3.80;2.07;;;14.10;30.10;;;;;;4975604;28;20447;-69
2021/08/09 02:06:38;;;;;;;1.83;1.33;;;14.00;28.90;;;;;;4975018;28;20993;-69
2021/08/09 02:09:07;;;;;;;1.83;1.60;;;13.90;29.20;;;;;;4974700;28;20215;-69
2021/08/09 02:11:42;;;;;;;2.43;2.23;;;13.90;30.70;;;;;;4973748;28;20531;-69
2021/08/09 02:14:11;;;;;;;2.77;1.50;;;13.90;29.90;;;;;;4975980;28;20451;-69
2021/08/09 02:16:50;;;;;;;7.77;1.93;;;13.90;30.00;;;;;;4975402;28;20509;-69
2021/08/09 02:19:21;;;;;;;1.73;1.63;;;13.80;30.10;;;;;;4975298;28;20608;-69
2021/08/09 02:21:55;;;;;;;5.27;0.97;;;13.80;31.60;;;;;;4975321;28;20413;-69
2021/08/09 02:24:29;;;;;;;2.07;1.33;;;13.90;33.20;;;;;;4975672;28;20446;-69
2021/08/09 02:27:00;;;;;;;4.20;1.53;;;13.80;30.20;;;;;;4974099;28;20463;-69
2021/08/09 02:29:34;;;;;;;9.03;2.10;;;13.80;33.00;;;;;;4973563;28;20421;-69
2021/08/09 02:32:01;;;;;;;4.27;1.70;;;13.80;31.30;;;;;;4974905;28;20459;-69
2021/08/09 02:34:32;;;;;;;4.07;1.87;;;13.80;30.60;;;;;;4974922;28;20519;-68
2021/08/09 02:37:00;;;;;;;1.83;1.10;;;13.80;30.10;;;;;;4972544;28;20903;-69
2021/08/09 02:39:28;;;;;;;2.37;1.50;;;13.80;32.70;;;;;;4972258;28;20424;-68
2021/08/09 02:41:54;;;;;;;1.60;1.30;;;13.80;32.00;;;;;;4971065;28;20528;-69
2021/08/09 02:44:20;;;;;;;2.97;1.50;;;13.80;33.20;;;;;;4972408;28;20445;-68
2021/08/09 02:46:46;;;;;;;3.43;1.47;;;13.80;34.30;;;;;;4972468;28;20777;-69
2021/08/09 02:49:13;;;;;;;2.00;1.20;;;13.80;34.30;;;;;;4972309;28;20767;-68
2021/08/09 02:51:38;;;;;;;3.60;2.03;;;13.70;33.70;;;;;;4972497;28;20428;-69
2021/08/09 02:54:05;;;;;;;2.23;1.20;;;13.80;33.00;;;;;;4972261;28;20802;-69
2021/08/09 02:56:32;;;;;;;4.50;1.50;;;13.80;32.20;;;;;;4971519;28;20247;-69
2021/08/09 02:58:58;;;;;;;2.80;2.00;;;13.70;32.10;;;;;;4972006;28;20507;-68
2021/08/09 03:01:27;;;;;;;2.37;1.50;;;13.70;33.60;;;;;;4972023;28;20484;-69
2021/08/09 03:03:58;;;;;;;2.10;1.40;;;13.70;34.20;;;;;;4972113;28;20195;-68
2021/08/09 03:06:25;;;;;;;3.10;1.50;;;13.70;32.60;;;;;;4972098;28;20409;-69
2021/08/09 03:08:51;;;;;;;2.83;1.73;;;13.60;33.20;;;;;;4971857;28;20784;-70
2021/08/09 03:11:17;;;;;;;4.30;1.27;;;13.50;31.20;;;;;;4974282;28;20938;-68
2021/08/09 03:13:47;;;;;;;7.07;2.20;;;13.50;33.20;;;;;;4976008;28;20464;-68
2021/08/09 03:16:13;;;;;;;4.10;1.93;;;13.60;34.10;;;;;;4976276;28;20173;-69
2021/08/09 03:18:38;;;;;;;3.27;2.60;;;13.50;32.70;;;;;;4976089;28;20445;-69
2021/08/09 03:21:05;;;;;;;2.10;1.90;;;13.40;32.60;;;;;;4975848;28;20179;-68
2021/08/09 03:23:31;;;;;;;4.00;2.40;;;13.30;31.50;;;;;;4975927;28;20252;-68
2021/08/09 03:25:57;;;;;;;2.43;1.80;;;13.30;32.80;;;;;;4975769;28;20421;-68
2021/08/09 03:28:22;;;;;;;2.70;1.67;;;13.30;32.10;;;;;;4975937;28;20262;-68
2021/08/09 03:30:48;;;;;;;3.60;1.77;;;13.30;33.90;;;;;;4975662;28;20203;-68
2021/08/09 03:33:13;;;;;;;2.53;1.83;;;13.30;33.80;;;;;;4975453;28;20210;-68
2021/08/09 03:35:39;;;;;;;8.07;2.13;;;13.30;33.30;;;;;;4974409;28;20176;-68
2021/08/09 03:38:04;;;;;;;7.53;2.43;;;13.20;32.70;;;;;;4975620;28;20175;-67
2021/08/09 03:40:30;;;;;;;2.20;1.43;;;13.30;35.50;;;;;;4975504;28;20185;-67
2021/08/09 03:42:55;;;;;;;4.17;1.80;;;13.30;35.10;;;;;;4975428;28;20244;-67
2021/08/09 03:45:21;;;;;;;2.27;1.60;;;13.30;36.80;;;;;;4975390;28;20618;-67
2021/08/09 03:47:47;;;;;;;3.10;1.43;;;13.40;36.40;;;;;;4974265;28;20185;-67
2021/08/09 03:50:12;;;;;;;1.90;1.23;;;13.40;35.70;;;;;;4975340;28;20194;-67
2021/08/09 03:52:52;;;;;;;2.83;1.90;;;13.40;36.20;;;;;;4975282;28;20201;-67
2021/08/09 03:55:19;;;;;;;4.50;2.30;;;13.30;34.60;;;;;;4973943;28;20249;-67
2021/08/09 03:57:44;;;;;;;2.27;1.67;;;13.30;35.30;;;;;;4975172;28;20411;-67
2021/08/09 04:00:11;;;;;;;2.63;1.50;;;13.20;33.80;;;;;;4973600;28;20418;-67
2021/08/09 04:02:37;;;;;;;3.60;2.07;;;13.10;33.70;;;;;;4975414;28;20425;-67
2021/08/09 04:05:05;;;;;;;2.73;1.70;;;13.10;35.80;;;;;;4975160;28;20460;-67
2021/08/09 04:07:31;;;;;;;4.23;2.10;;;13.20;36.10;;;;;;4975167;28;20537;-67
2021/08/09 04:09:56;;;;;;;7.03;2.13;;;13.10;33.70;;;;;;4975229;28;20488;-68
2021/08/09 04:12:22;;;;;;;3.20;2.00;;;13.10;33.00;;;;;;4975000;28;20217;-67
2021/08/09 04:14:48;;;;;;;4.27;1.90;;;13.10;33.70;;;;;;4974858;28;20808;-67
2021/08/09 04:17:13;;;;;;;2.93;1.87;;;13.10;34.90;;;;;;4974894;28;20173;-67
2021/08/09 04:19:39;;;;;;;1.97;1.77;;;13.10;35.80;;;;;;4974482;28;20416;-68
2021/08/09 04:22:05;;;;;;;2.07;1.60;;;13.10;33.70;;;;;;4973953;28;20181;-68
2021/08/09 04:24:31;;;;;;;3.33;2.03;;;13.20;35.50;;;;;;4974514;28;20644;-67
2021/08/09 04:26:56;;;;;;;3.50;2.53;;;13.20;36.20;;;;;;4974562;28;20191;-67
2021/08/09 04:29:22;;;;;;;6.00;2.50;;;13.20;33.80;;;;;;4974318;28;20227;-68
2021/08/09 04:31:47;;;;;;;3.57;2.47;;;13.20;32.30;;;;;;4974341;28;20258;-67
2021/08/09 04:34:13;;;;;;;4.13;2.00;;;13.20;32.10;;;;;;4974197;28;20630;-67
2021/08/09 04:36:39;;;;;;;2.97;2.40;;;13.20;31.70;;;;;;4974347;28;20204;-67
2021/08/09 04:39:05;;;;;;;3.73;2.30;;;13.30;31.90;;;;;;4973992;28;20511;-67
2021/08/09 04:41:30;;;;;;;3.60;2.57;;;13.30;32.70;;;;;;4974318;28;20182;-68
2021/08/09 04:43:56;;;;;;;2.30;1.90;;;13.20;32.30;;;;;;4974218;28;20496;-68
2021/08/09 04:46:21;;;;;;;3.63;2.20;;;13.30;31.70;;;;;;4974359;28;20220;-68
2021/08/09 04:48:47;;;;;;;4.97;2.43;;;13.30;33.90;;;;;;4973973;28;20178;-68
2021/08/09 04:51:13;;;;;;;3.23;2.10;;;13.40;34.00;;;;;;4974171;28;20179;-68
2021/08/09 04:53:38;;;;;;;3.43;2.40;;;13.40;33.90;;;;;;4974030;28;20300;-68
2021/08/09 04:56:07;;;;;;;2.10;1.80;;;13.50;32.70;;;;;;4973923;28;20535;-68
2021/08/09 04:58:32;;;;;;;2.20;1.50;;;13.50;34.00;;;;;;4973850;28;20186;-68
2021/08/09 05:00:58;;;;;;;4.57;1.93;;;13.60;34.00;;;;;;4972382;28;20417;-67
2021/08/09 05:03:23;;;;;;;4.00;2.17;;;13.60;32.20;;;;;;4973802;28;20231;-68
2021/08/09 05:05:49;;;;;;;3.40;1.93;;;13.60;33.20;;;;;;4974042;28;20210;-68
2021/08/09 05:08:14;;;;;;;2.23;1.63;;;13.70;33.30;;;;;;4974140;28;20646;-69
2021/08/09 05:10:40;;;;;;;5.93;1.97;;;13.70;33.20;;;;;;4973483;28;20224;-69
2021/08/09 05:13:06;;;;;;;2.20;1.60;;;13.80;32.40;;;;;;4973629;28;20209;-69
2021/08/09 05:15:33;;;;;;;3.80;1.90;;;13.80;33.80;;;;;;4973900;28;20485;-69
2021/08/09 05:17:59;;;;;;;2.60;2.30;;;13.90;33.80;;;;;;4973686;28;20173;-70
2021/08/09 05:20:25;;;;;;;4.87;3.17;;;13.90;32.20;;;;;;4973147;28;20832;-69
2021/08/09 05:22:50;;;;;;;2.30;2.10;;;14.30;33.70;;;;;;4973560;28;20188;-69
2021/08/09 05:25:16;;;;;;;3.67;2.33;;;15.40;28.60;;;;;;4973571;28;20558;-70
2021/08/09 05:27:42;;;;;;;8.20;2.73;;;16.40;27.00;;;;;;4973447;28;20186;-68
2021/08/09 05:30:10;;;;;;;2.93;2.60;;;17.50;24.40;;;;;;4973121;28;20208;-67
2021/08/09 05:32:37;;;;;;;2.97;2.70;;;18.40;22.50;;;;;;4973298;28;20459;-68
2021/08/09 05:35:04;;;;;;;2.77;2.53;;;18.90;21.30;;;;;;4972944;28;20796;-68
2021/08/09 05:37:32;;;;;;;3.17;2.97;;;19.40;19.10;;;;;;4973185;28;20420;-67
2021/08/09 05:39:58;;;;;;;5.37;4.00;;;19.40;20.00;;;;;;4972927;28;20417;-67
2021/08/09 05:42:24;;;;;;;3.93;3.63;;;19.30;19.90;;;;;;4973131;28;20425;-68
2021/08/09 05:44:50;;;;;;;3.60;3.30;;;19.30;19.50;;;;;;4973087;28;20440;-69
2021/08/09 05:47:15;;;;;;;3.53;3.23;;;19.10;20.60;;;;;;4973151;28;20177;-68
2021/08/09 05:49:41;;;;;;;3.33;3.13;;;19.00;20.20;;;;;;4972614;28;20185;-68
2021/08/09 05:52:06;;;;;;;3.30;3.10;;;18.90;20.20;;;;;;4971572;28;20208;-68
2021/08/09 05:54:32;;;;;;;3.10;2.90;;;18.90;20.80;;;;;;4972752;28;20196;-68
2021/08/09 05:56:57;;;;;;;3.23;3.03;;;18.90;20.20;;;;;;4972797;28;20288;-68
2021/08/09 05:59:23;;;;;;;3.97;3.67;;;18.90;21.60;;;;;;4972652;28;20261;-68
2021/08/09 06:01:48;;;;;;;8.73;3.87;;;19.00;20.20;;;;;;4972758;28;20543;-68
2021/08/09 06:04:14;;;;;;;7.73;3.90;;;19.00;20.20;;;;;;4972619;28;20307;-68
2021/08/09 06:06:41;;;;;;;4.80;3.83;;;19.00;20.20;;;;;;4972966;28;20181;-68
2021/08/09 06:09:07;;;;;;;4.53;4.10;;;19.00;20.80;;;;;;4972811;28;20196;-68
2021/08/09 06:11:32;;;;;;;3.57;3.37;;;19.20;20.40;;;;;;4972524;28;20417;-68
2021/08/09 06:13:58;;;;;;;4.30;4.00;;;19.30;20.50;;;;;;4972907;28;20205;-68
2021/08/09 06:16:25;;;;;;;3.70;3.40;;;19.40;19.20;;;;;;4972426;28;20212;-67
2021/08/09 06:18:50;;;;;;;4.80;4.00;;;19.30;19.90;;;;;;4972132;28;20244;-68
2021/08/09 06:21:16;;;;;;;4.50;4.20;;;19.40;19.10;;;;;;4972372;28;20421;-67
2021/08/09 06:23:42;;;;;;;4.50;4.20;;;19.50;20.20;;;;;;4972297;28;20205;-68
2021/08/09 06:26:08;;;;;;;6.30;4.70;;;19.60;19.70;;;;;;4970992;28;20590;-67
2021/08/09 06:28:35;;;;;;;6.10;4.30;;;19.60;20.70;;;;;;4972397;28;20423;-68
2021/08/09 06:31:01;;;;;;;4.53;4.27;;;19.70;19.20;;;;;;4972454;28;20173;-68
2021/08/09 06:33:26;;;;;;;5.10;4.80;;;19.70;20.70;;;;;;4971933;28;20473;-69
2021/08/09 06:35:52;;;;;;;5.17;4.77;;;19.70;19.90;;;;;;4970798;28;20667;-68
2021/08/09 06:38:17;;;;;;;5.83;5.43;;;19.70;19.30;;;;;;4972097;28;20647;-67
2021/08/09 06:40:44;;;;;;;5.33;4.77;;;19.70;20.50;;;;;;4971884;28;20180;-68
2021/08/09 06:43:11;;;;;;;4.83;4.33;;;19.80;20.60;;;;;;4972125;28;20178;-67
2021/08/09 06:45:41;;;;;;;5.00;4.70;;;19.90;20.90;;;;;;4971698;28;20417;-67
2021/08/09 06:48:07;;;;;;;5.13;4.73;;;19.90;19.50;;;;;;4971015;28;20424;-69
2021/08/09 06:50:33;;;;;;;5.40;4.90;;;19.90;20.70;;;;;;4971914;28;20914;-68
2021/08/09 06:52:58;;;;;;;5.50;5.20;;;19.90;18.60;;;;;;4972144;28;20467;-68
2021/08/09 06:55:24;;;;;;;6.20;5.80;;;20.00;19.00;;;;;;4970238;28;20200;-69
2021/08/09 06:57:49;;;;;;;5.13;4.83;;;20.00;18.40;;;;;;4968986;28;20185;-68
2021/08/09 07:00:15;;;;;;;6.03;5.63;;;20.00;19.40;;;;;;4967371;28;20193;-68
2021/08/09 07:02:40;;;;;;;5.20;4.90;;;19.90;19.00;;;;;;4968647;28;20555;-67
2021/08/09 07:05:06;;;;;;;9.13;5.10;;;19.90;20.30;;;;;;4967638;28;20245;-68
2021/08/09 07:07:32;;;;;;;5.60;5.30;;;20.00;20.50;;;;;;4967013;28;20197;-68
2021/08/09 07:09:58;;;;;;;5.67;5.33;;;20.20;19.30;;;;;;4968156;28;20518;-68
2021/08/09 07:12:24;;;;;;;5.43;5.10;;;20.20;19.00;;;;;;4967520;28;20209;-68
2021/08/09 07:14:50;;;;;;;9.13;5.20;;;20.30;20.10;;;;;;4968338;28;20447;-68
2021/08/09 07:17:15;;;;;;;5.13;4.83;;;20.40;21.20;;;;;;4968421;28;20193;-68
2021/08/09 07:19:43;;;;;;;6.27;5.80;;;20.50;20.20;;;;;;4967309;28;20165;-68
2021/08/09 07:22:09;;;;;;;6.37;5.87;;;20.70;18.70;;;;;;4967704;28;20182;-68
2021/08/09 07:24:36;;;;;;;5.50;5.10;;;20.80;19.40;;;;;;4968197;28;20449;-68
2021/08/09 07:27:02;;;;;;;5.80;5.50;;;21.00;20.00;;;;;;4967577;28;20233;-71
2021/08/09 07:29:29;;;;;;;9.40;6.20;;;21.20;19.50;;;;;;4968675;28;20440;-69
2021/08/09 07:31:54;;;;;;;6.20;5.90;;;21.50;18.90;;;;;;4971783;28;20643;-69
2021/08/09 07:34:20;;;;;;;5.90;5.50;;;21.70;18.40;;;;;;4971376;28;20460;-68
2021/08/09 07:36:45;;;;;;;7.10;6.50;;;22.00;19.00;;;;;;4971968;28;20597;-68
2021/08/09 07:39:11;;;;;;;9.83;7.07;;;22.10;16.40;;;;;;4971364;28;20543;-68
2021/08/09 07:41:36;;;;;;;7.10;6.80;;;22.20;16.60;;;;;;4971580;28;20205;-69
2021/08/09 07:44:02;;;;;;;7.03;6.50;;;22.30;15.90;;;;;;4971462;28;20221;-69
2021/08/09 07:46:27;;;;;;;7.97;7.57;;;22.40;17.20;;;;;;4970187;28;20190;-69
2021/08/09 07:48:54;;;;;;;7.60;7.27;;;22.50;15.60;;;;;;4979098;28;20188;-69
2021/08/09 07:51:20;;;;;;;7.90;7.60;;;22.60;16.30;;;;;;4974248;28;20182;-69
2021/08/09 07:53:46;;;;;;;8.40;8.00;;;22.80;15.50;;;;;;4971447;28;20476;-69
2021/08/09 07:56:11;;;;;;;8.23;7.83;;;23.00;15.20;;;;;;4971655;28;20420;-69
2021/08/09 07:58:37;;;;;;;9.10;8.67;;;23.10;15.30;;;;;;4972398;28;20652;-69
2021/08/09 08:01:03;;;;;;;7.90;7.60;;;23.20;13.70;;;;;;4974968;28;20184;-69
2021/08/09 08:03:28;;;;;;;8.30;8.00;;;23.20;16.00;;;;;;4975114;28;20221;-69
2021/08/09 08:05:54;;;;;;;9.63;9.23;;;23.20;12.70;;;;;;4974784;28;20184;-69
2021/08/09 08:08:20;;;;;;;9.47;8.97;;;23.20;13.60;;;;;;4974928;28;20177;-69
2021/08/09 08:10:45;;;;;;;9.70;9.30;;;23.30;13.90;;;;;;4974917;28;20186;-69
2021/08/09 08:13:11;;;;;;;9.80;9.40;;;23.60;13.80;;;;;;4974643;28;20213;-69
2021/08/09 08:15:36;;;;;;;9.70;9.30;;;24.00;13.10;;;;;;4974705;28;20594;-69
2021/08/09 08:18:02;;;;;;;11.20;10.70;;;24.40;13.60;;;;;;4974617;28;20670;-69
2021/08/09 08:20:28;;;;;;;11.53;11.03;;;24.80;10.30;;;;;;4983234;28;20184;-69
2021/08/09 08:22:54;;;;;;;11.60;11.20;;;25.40;11.20;;;;;;4977718;28;20185;-69
2021/08/09 08:25:20;;;;;;;12.97;12.30;;;26.10;8.70;;;;;;4974922;28;20185;-69
2021/08/09 08:27:46;;;;;;;13.07;12.57;;;26.80;7.30;;;;;;4990126;28;20890;-69
2021/08/09 08:30:15;;;;;;;13.37;12.77;;;27.50;7.20;;;;;;4990223;28;20487;-68
2021/08/09 08:32:41;;;;;;;13.30;12.80;;;28.00;6.70;;;;;;4993006;28;20200;-69
2021/08/09 08:35:08;;;;;;;14.10;13.50;;;28.00;6.50;;;;;;4984731;28;20471;-68
2021/08/09 08:37:34;;;;;;;14.30;13.60;;;27.60;8.40;;;;;;4973974;28;20185;-68
2021/08/09 08:39:59;;;;;;;14.40;13.80;;;27.00;8.30;;;;;;4973664;28;20514;-69
2021/08/09 08:42:25;;;;;;;14.43;13.87;;;26.30;8.40;;;;;;4972565;28;20188;-68
2021/08/09 08:44:50;;;;;;;13.80;13.30;;;25.40;7.30;;;;;;4973800;28;20198;-68
2021/08/09 08:47:18;;;;;;;14.40;13.80;;;25.00;9.00;;;;;;4984891;28;20237;-68
2021/08/09 08:49:46;;;;;;;12.20;11.80;;;24.60;10.70;;;;;;4990936;28;20192;-69
2021/08/09 08:52:11;;;;;;;13.70;13.20;;;24.40;11.80;;;;;;4992676;28;20535;-68
2021/08/09 08:54:39;;;;;;;12.93;12.43;;;24.40;11.80;;;;;;4994859;28;20460;-68
2021/08/09 08:57:14;;;;;;;14.30;13.80;;;24.40;12.60;;;;;;4986029;28;20173;-68
2021/08/09 08:59:40;;;;;;;13.60;13.10;;;24.30;8.40;;;;;;4973319;28;20508;-68
2021/08/09 09:02:06;;;;;;;12.53;12.03;;;24.30;10.50;;;;;;4977925;28;20559;-68
2021/08/09 09:04:32;;;;;;;13.10;12.60;;;24.30;12.30;;;;;;4973751;28;20197;-68
2021/08/09 09:07:02;;;;;;;14.30;13.70;;;24.30;11.50;;;;;;4973631;28;20409;-68
2021/08/09 09:09:30;;;;;;;13.13;12.63;;;24.30;10.50;;;;;;4972731;28;20420;-68
2021/08/09 09:11:56;;;;;;;13.43;12.83;;;24.30;11.60;;;;;;4988634;28;20427;-68
2021/08/09 09:14:29;;;;;;;13.60;13.10;;;24.40;11.40;;;;;;4976211;28;20954;-69
2021/08/09 09:16:56;;;;;;;13.07;12.63;;;24.50;10.10;;;;;;4973963;28;20405;-69
2021/08/09 09:19:31;;;;;;;13.50;12.90;;;24.40;9.80;;;;;;4991764;28;20849;-68
2021/08/09 09:21:57;;;;;;;12.50;12.00;;;24.20;10.40;;;;;;4982988;28;20922;-68
2021/08/09 09:24:25;;;;;;;13.70;12.80;;;24.20;12.30;;;;;;4969135;28;20499;-68
2021/08/09 09:27:05;;;;;;;12.70;12.20;;;24.30;10.50;;;;;;4972451;28;20459;-68
2021/08/09 09:29:39;;;;;;;14.10;13.50;;;24.20;10.60;;;;;;4987003;28;20439;-68
2021/08/09 09:32:19;;;;;;;12.60;12.10;;;24.10;8.90;;;;;;4986376;28;20432;-68
2021/08/09 09:34:47;;;;;;;13.77;13.07;;;24.00;12.10;;;;;;4970414;28;20456;-68
2021/08/09 09:37:23;;;;;;;12.97;12.47;;;23.90;10.30;;;;;;4967163;28;20440;-68
2021/08/09 09:39:48;;;;;;;13.40;12.90;;;23.90;12.10;;;;;;4969748;28;20870;-68
2021/08/09 09:42:17;;;;;;;12.97;12.47;;;24.10;12.00;;;;;;4969612;28;20570;-68
2021/08/09 09:44:43;;;;;;;14.13;13.53;;;24.20;10.80;;;;;;4969643;28;20220;-68
2021/08/09 09:47:22;;;;;;;13.77;13.27;;;24.30;9.50;;;;;;4968447;28;20472;-68
2021/08/09 09:49:57;;;;;;;14.23;13.53;;;24.40;10.10;;;;;;4968205;28;20432;-67
2021/08/09 09:52:35;;;;;;;14.40;13.60;;;24.40;9.20;;;;;;4970144;28;20514;-67
2021/08/09 09:55:05;;;;;;;14.30;13.70;;;24.40;10.60;;;;;;4976919;28;20450;-68
2021/08/09 09:57:31;;;;;;;15.13;14.43;;;24.40;10.60;;;;;;4986674;28;20572;-67
2021/08/09 09:59:58;;;;;;;14.50;13.93;;;24.30;10.50;;;;;;4972461;28;20796;-67
2021/08/09 10:02:25;;;;;;;14.10;13.60;;;24.30;10.70;;;;;;4972508;28;20436;-68
2021/08/09 10:04:51;;;;;;;14.57;13.77;;;24.30;9.90;;;;;;4972586;28;20470;-68
2021/08/09 10:07:20;;;;;;;13.87;13.37;;;24.40;9.80;;;;;;4972400;28;20793;-68
2021/08/09 10:09:48;;;;;;;14.03;13.53;;;24.50;10.20;;;;;;4970515;28;20475;-68
2021/08/09 10:12:17;;;;;;;15.50;14.80;;;24.60;9.30;;;;;;4974603;28;20531;-70
2021/08/09 10:14:42;;;;;;;14.90;14.07;;;24.70;9.50;;;;;;4973129;28;20440;-72
2021/08/09 10:17:08;;;;;;;13.87;13.37;;;24.80;10.90;;;;;;4972531;28;20441;-72
2021/08/09 10:19:34;;;;;;;14.97;14.27;;;24.90;9.50;;;;;;4982057;28;20188;-70
2021/08/09 10:22:00;;;;;;;14.40;13.90;;;25.00;9.10;;;;;;4992170;28;20260;-71
2021/08/09 10:24:39;;;;;;;14.20;13.70;;;25.10;8.00;;;;;;4992075;28;20219;-71
2021/08/09 10:27:06;;;;;;;14.37;13.87;;;25.10;9.50;;;;;;4975160;28;20193;-71
2021/08/09 10:29:32;;;;;;;14.33;13.73;;;25.10;10.10;;;;;;4973201;28;20420;-71
2021/08/09 10:32:19;;;;;;;14.60;14.10;;;25.20;9.90;;;;;;4971931;28;20774;-71
2021/08/09 10:34:45;;;;;;;15.30;14.70;;;25.30;7.90;;;;;;4971743;28;20221;-72
2021/08/09 10:37:14;;;;;;;15.43;14.83;;;25.40;8.00;;;;;;4973494;28;20855;-69
2021/08/09 10:39:50;;;;;;;15.20;14.70;;;25.40;7.10;;;;;;4974519;28;20177;-68
2021/08/09 10:42:31;;;;;;;16.20;15.60;;;25.30;7.60;;;;;;4975078;28;20429;-68
2021/08/09 10:44:58;;;;;;;15.70;15.10;;;25.00;6.40;;;;;;4992167;28;20858;-68
2021/08/09 10:47:48;;;;;;;15.20;14.70;;;24.60;7.80;;;;;;4991724;28;20451;-68
2021/08/09 10:50:25;;;;;;;15.67;15.07;;;24.60;9.20;;;;;;4990753;28;20948;-68
2021/08/09 10:52:52;;;;;;;17.30;15.90;;;24.80;7.80;;;;;;4984694;28;20551;-69
2021/08/09 10:55:30;;;;;;;16.20;15.60;;;24.80;7.20;;;;;;4983685;28;20448;-68
2021/08/09 10:58:08;;;;;;;16.00;15.20;;;24.60;7.70;;;;;;4972214;28;20867;-68
2021/08/09 11:00:42;;;;;;;15.90;15.30;;;24.60;8.40;;;;;;4972270;28;20412;-68
2021/08/09 11:03:13;;;;;;;15.53;14.93;;;24.70;9.00;;;;;;4972092;28;20479;-69
2021/08/09 11:05:39;;;;;;;15.90;15.30;;;24.80;8.50;;;;;;4979619;28;20526;-69
2021/08/09 11:08:20;;;;;;;16.00;15.40;;;25.00;7.90;;;;;;4994573;28;20431;-69
2021/08/09 11:10:53;;;;;;;16.60;16.00;;;25.10;8.60;;;;;;4991649;28;20502;-69
2021/08/09 11:13:20;;;;;;;16.70;16.10;;;25.20;5.80;;;;;;4991713;28;20549;-69
2021/08/09 11:16:01;;;;;;;16.00;15.40;;;25.00;6.90;;;;;;4992068;28;20423;-69
2021/08/09 11:18:28;;;;;;;16.70;16.10;;;24.90;8.80;;;;;;4991711;28;20419;-69
2021/08/09 11:21:05;;;;;;;16.23;15.63;;;24.80;7.40;;;;;;4975536;28;20464;-68
2021/08/09 11:23:42;;;;;;;16.20;15.60;;;24.70;8.70;;;;;;4971747;28;20821;-69
2021/08/09 11:26:21;;;;;;;15.77;15.17;;;24.70;8.50;;;;;;4971966;28;20528;-68
2021/08/09 11:29:04;;;;;;;16.30;15.60;;;24.70;8.00;;;;;;4972007;28;20424;-69
2021/08/09 11:31:47;;;;;;;15.30;14.70;;;24.60;8.80;;;;;;4968267;28;20817;-69
2021/08/09 11:34:13;;;;;;;16.20;15.60;;;24.90;8.40;;;;;;4966261;28;20480;-68
2021/08/09 11:36:39;;;;;;;16.50;15.90;;;25.10;9.40;;;;;;4956296;28;20471;-70
2021/08/09 11:39:05;;;;;;;16.80;16.10;;;25.30;6.60;;;;;;4956284;28;20429;-68
2021/08/09 11:41:31;;;;;;;17.10;16.40;;;25.30;6.50;;;;;;4956964;28;20420;-68
2021/08/09 11:44:03;;;;;;;16.50;15.90;;;25.10;8.10;;;;;;4960520;28;20568;-68
2021/08/09 11:46:29;;;;;;;16.53;15.83;;;25.10;7.90;;;;;;4994071;28;20423;-68
2021/08/09 11:48:55;;;;;;;16.10;15.40;;;25.10;7.40;;;;;;4994565;28;20931;-68
2021/08/09 11:51:20;;;;;;;16.40;15.50;;;25.10;7.80;;;;;;4982257;28;20276;-68
2021/08/09 11:53:48;;;;;;;16.40;15.70;;;25.20;8.30;;;;;;4982401;28;20216;-68
2021/08/09 11:56:39;;;;;;;16.33;15.73;;;25.20;7.70;;;;;;4975082;28;20200;-68
2021/08/09 11:59:13;;;;;;;16.93;16.23;;;25.20;8.40;;;;;;4974629;28;20417;-68
2021/08/09 12:01:47;;;;;;;17.60;16.60;;;25.20;5.90;;;;;;4974403;28;20428;-68
2021/08/09 12:04:19;;;;;;;15.70;15.10;;;25.10;7.30;;;;;;4973714;28;20440;-68
2021/08/09 12:06:56;;;;;;;16.50;15.80;;;25.20;8.60;;;;;;4988718;28;20428;-67
2021/08/09 12:09:40;;;;;;;16.73;16.00;;;25.30;8.50;;;;;;4959312;28;20447;-70
2021/08/09 12:12:08;;;;;;;15.77;15.13;;;25.30;8.50;;;;;;4955591;28;20416;-70
2021/08/09 12:14:35;;;;;;;16.00;15.40;;;25.30;8.80;;;;;;4960335;28;20437;-68
2021/08/09 12:17:21;;;;;;;16.13;15.53;;;25.30;7.60;;;;;;4954755;28;20931;-68
2021/08/09 12:19:47;;;;;;;16.00;15.40;;;25.40;6.40;;;;;;4979093;28;20475;-67
2021/08/09 12:22:15;;;;;;;15.90;15.30;;;25.30;8.60;;;;;;4985519;28;20638;-68
2021/08/09 12:24:43;;;;;;;16.73;15.93;;;25.40;8.40;;;;;;4974578;28;20977;-67
2021/08/09 12:27:22;;;;;;;16.90;16.00;;;25.50;7.60;;;;;;4974467;28;20805;-68
2021/08/09 12:30:14;;;;;;;16.20;15.60;;;25.60;5.80;;;;;;4970008;28;20528;-67
2021/08/09 12:32:41;;;;;;;16.30;15.67;;;25.50;7.70;;;;;;4954638;28;20616;-68
2021/08/09 12:35:08;;;;;;;16.47;15.87;;;25.60;7.60;;;;;;4953819;28;21026;-68
2021/08/09 12:37:36;;;;;;;17.30;16.60;;;25.50;6.60;;;;;;4986992;28;20431;-68
2021/08/09 12:40:16;;;;;;;17.17;16.37;;;25.30;8.10;;;;;;4993477;28;20941;-68
2021/08/09 12:42:43;;;;;;;15.90;15.10;;;25.30;7.80;;;;;;4993391;28;20403;-68
2021/08/09 12:45:10;;;;;;;16.00;15.30;;;25.40;7.80;;;;;;4993214;28;20431;-68
2021/08/09 12:47:36;;;;;;;16.87;16.20;;;25.50;8.20;;;;;;4993533;28;20505;-68